createdAt,value
2018-06-25T00:00:45.623Z,0
2018-06-25T00:01:45.929Z,0
2018-06-25T00:02:46.192Z,0
2018-06-25T00:03:46.208Z,0
2018-06-25T00:04:46.231Z,0
2018-06-25T00:06:00.912Z,0
2018-06-25T00:06:46.015Z,0
2018-06-25T00:08:00.704Z,0
2018-06-25T00:09:00.461Z,0
2018-06-25T00:09:46.103Z,0
2018-06-25T00:10:46.368Z,0
2018-06-25T00:11:46.130Z,0
2018-06-25T00:12:46.149Z,0
2018-06-25T00:14:00.832Z,0
2018-06-25T00:14:46.449Z,0
2018-06-25T00:15:46.216Z,0
2018-06-25T00:16:46.497Z,0
2018-06-25T00:17:46.527Z,0
2018-06-25T00:18:46.027Z,0
2018-06-25T00:19:46.316Z,0
2018-06-25T00:21:46.359Z,0
2018-06-25T00:23:01.035Z,0
2018-06-25T00:23:46.655Z,0
2018-06-25T00:24:46.835Z,0
2018-06-25T00:25:46.718Z,0
2018-06-25T00:26:46.465Z,0
2018-06-25T00:27:46.757Z,0
2018-06-25T00:29:01.424Z,0
2018-06-25T00:31:46.840Z,0
2018-06-25T00:32:46.854Z,0
2018-06-25T00:33:46.663Z,0
2018-06-25T00:34:46.896Z,0
2018-06-25T00:35:46.923Z,0
2018-06-25T00:36:46.944Z,0
2018-06-25T00:37:46.966Z,0
2018-06-25T00:38:46.996Z,0
2018-06-25T00:39:47.010Z,0
2018-06-25T00:40:46.515Z,0
2018-06-25T00:41:47.053Z,0
2018-06-25T00:42:46.817Z,0
2018-06-25T00:43:47.096Z,0
2018-06-25T00:45:01.783Z,0
2018-06-25T00:45:47.143Z,0
2018-06-25T00:46:47.165Z,0
2018-06-25T00:48:47.205Z,0
2018-06-25T00:49:47.024Z,0
2018-06-25T00:50:47.252Z,0
2018-06-25T00:51:47.276Z,0
2018-06-25T00:52:47.301Z,0
2018-06-25T00:54:01.978Z,0
2018-06-25T00:54:47.338Z,0
2018-06-25T00:55:47.108Z,0
2018-06-25T00:57:01.790Z,0
2018-06-25T00:57:47.407Z,0
2018-06-25T00:58:47.172Z,0
2018-06-25T00:59:47.503Z,0
2018-06-25T01:01:01.875Z,0
2018-06-25T01:01:47.287Z,0
2018-06-25T01:02:47.258Z,0
2018-06-25T01:03:47.283Z,0
2018-06-25T01:05:01.972Z,0
2018-06-25T01:05:47.324Z,0
2018-06-25T01:08:47.651Z,0
2018-06-25T01:10:02.331Z,0
2018-06-25T01:10:47.693Z,0
2018-06-25T01:11:47.457Z,0
2018-06-25T01:12:47.790Z,0
2018-06-25T01:13:47.760Z,0
2018-06-25T01:14:47.784Z,0
2018-06-25T01:15:47.804Z,0
2018-06-25T01:17:02.231Z,0
2018-06-25T01:18:02.510Z,0
2018-06-25T01:18:47.870Z,0
2018-06-25T01:19:47.898Z,0
2018-06-25T01:20:47.913Z,0
2018-06-25T01:21:47.676Z,0
2018-06-25T01:22:47.960Z,0
2018-06-25T01:23:47.975Z,0
2018-06-25T01:24:47.749Z,0
2018-06-25T01:25:47.770Z,0
2018-06-25T01:27:02.706Z,0
2018-06-25T01:27:48.065Z,0
2018-06-25T01:28:48.092Z,0
2018-06-25T01:29:48.109Z,0
2018-06-25T01:30:47.875Z,0
2018-06-25T01:31:48.166Z,0
2018-06-25T01:33:02.839Z,0
2018-06-25T01:34:02.862Z,0
2018-06-25T01:34:48.223Z,0
2018-06-25T01:35:47.987Z,0
2018-06-25T01:37:02.669Z,0
2018-06-25T01:38:02.952Z,0
2018-06-25T01:38:48.050Z,0
2018-06-25T01:39:48.336Z,0
2018-06-25T01:41:02.757Z,0
2018-06-25T01:41:48.192Z,0
2018-06-25T01:42:48.402Z,0
2018-06-25T01:43:48.161Z,0
2018-06-25T01:44:47.925Z,0
2018-06-25T01:45:47.948Z,0
2018-06-25T01:46:48.486Z,0
2018-06-25T01:47:48.506Z,0
2018-06-25T01:49:03.190Z,0
2018-06-25T01:49:48.551Z,0
2018-06-25T01:51:03.237Z,0
2018-06-25T01:51:48.601Z,0
2018-06-25T01:53:48.382Z,0
2018-06-25T01:54:48.671Z,0
2018-06-25T01:57:03.370Z,0
2018-06-25T01:57:48.729Z,0
2018-06-25T01:58:48.494Z,0
2018-06-25T01:59:48.615Z,0
2018-06-25T02:00:48.797Z,0
2018-06-25T02:01:48.566Z,4
2018-06-25T02:02:48.593Z,4
2018-06-25T02:04:03.523Z,0
2018-06-25T02:04:48.883Z,0
2018-06-25T02:05:48.906Z,4
2018-06-25T02:06:48.933Z,4
2018-06-25T02:07:48.701Z,4
2018-06-25T02:08:48.816Z,4
2018-06-25T02:10:03.395Z,4
2018-06-25T02:11:49.039Z,4
2018-06-25T02:12:49.059Z,4
2018-06-25T02:13:48.824Z,4
2018-06-25T02:14:49.109Z,8
2018-06-25T02:15:48.877Z,4
2018-06-25T02:16:49.147Z,8
2018-06-25T02:17:49.179Z,8
2018-06-25T02:18:48.933Z,8
2018-06-25T02:19:48.957Z,8
2018-06-25T02:20:48.976Z,8
2018-06-25T02:21:49.255Z,12
2018-06-25T02:22:49.280Z,8
2018-06-25T02:23:49.308Z,12
2018-06-25T02:25:03.982Z,12
2018-06-25T02:25:49.347Z,12
2018-06-25T02:26:49.370Z,20
2018-06-25T02:28:49.416Z,24
2018-06-25T02:29:49.176Z,20
2018-06-25T02:30:48.944Z,20
2018-06-25T02:31:49.479Z,24
2018-06-25T02:32:49.515Z,28
2018-06-25T02:33:49.265Z,28
2018-06-25T02:34:49.565Z,36
2018-06-25T02:36:03.713Z,44
2018-06-25T02:36:49.671Z,48
2018-06-25T02:37:49.636Z,56
2018-06-25T02:38:50.114Z,56
2018-06-25T02:39:49.652Z,60
2018-06-25T02:40:49.683Z,68
2018-06-25T02:41:49.719Z,76
2018-06-25T02:42:49.467Z,84
2018-06-25T02:43:49.749Z,104
2018-06-25T02:45:04.438Z,120
2018-06-25T02:45:49.533Z,128
2018-06-25T02:47:04.482Z,128
2018-06-25T02:47:49.837Z,132
2018-06-25T02:48:49.613Z,140
2018-06-25T02:49:49.874Z,144
2018-06-25T02:50:49.382Z,156
2018-06-25T02:52:04.324Z,168
2018-06-25T02:53:49.966Z,216
2018-06-25T02:55:49.761Z,272
2018-06-25T02:56:50.032Z,288
2018-06-25T02:57:50.048Z,312
2018-06-25T03:01:04.788Z,372
2018-06-25T03:01:50.146Z,376
2018-06-25T03:02:50.261Z,376
2018-06-25T03:03:49.926Z,372
2018-06-25T03:04:50.209Z,380
2018-06-25T03:05:50.231Z,380
2018-06-25T03:06:49.997Z,344
2018-06-25T03:08:04.933Z,340
2018-06-25T03:08:50.048Z,356
2018-06-25T03:09:50.057Z,380
2018-06-25T03:10:50.341Z,384
2018-06-25T03:11:50.107Z,432
2018-06-25T03:12:50.123Z,488
2018-06-25T03:13:50.404Z,488
2018-06-25T03:14:50.424Z,464
2018-06-25T03:15:50.452Z,484
2018-06-25T03:17:05.131Z,564
2018-06-25T03:17:50.495Z,560
2018-06-25T03:19:05.179Z,564
2018-06-25T03:19:50.377Z,584
2018-06-25T03:20:50.315Z,572
2018-06-25T03:22:05.340Z,552
2018-06-25T03:22:50.608Z,528
2018-06-25T03:24:05.291Z,500
2018-06-25T03:24:50.388Z,508
2018-06-25T03:25:50.670Z,564
2018-06-25T03:26:50.695Z,600
2018-06-25T03:27:50.721Z,608
2018-06-25T03:28:50.738Z,644
2018-06-25T03:30:50.788Z,696
2018-06-25T03:32:05.463Z,620
2018-06-25T03:32:50.563Z,616
2018-06-25T03:34:05.505Z,644
2018-06-25T03:34:50.862Z,664
2018-06-25T03:35:50.645Z,700
2018-06-25T03:36:50.654Z,716
2018-06-25T03:37:50.677Z,732
2018-06-25T03:39:05.616Z,820
2018-06-25T03:39:50.720Z,760
2018-06-25T03:40:50.763Z,728
2018-06-25T03:41:50.510Z,728
2018-06-25T03:42:51.047Z,724
2018-06-25T03:43:51.072Z,764
2018-06-25T03:44:51.099Z,824
2018-06-25T03:45:50.853Z,832
2018-06-25T03:46:51.136Z,884
2018-06-25T03:47:51.155Z,940
2018-06-25T03:48:51.180Z,948
2018-06-25T03:49:51.310Z,996
2018-06-25T03:51:05.891Z,1092
2018-06-25T03:51:51.247Z,1204
2018-06-25T03:52:51.274Z,1204
2018-06-25T03:53:51.294Z,1180
2018-06-25T03:54:51.316Z,1364
2018-06-25T03:55:51.075Z,1492
2018-06-25T03:57:51.384Z,1328
2018-06-25T03:59:06.056Z,1180
2018-06-25T03:59:51.422Z,1128
2018-06-25T04:00:51.189Z,1196
2018-06-25T04:01:51.469Z,1192
2018-06-25T04:02:51.242Z,1136
2018-06-25T04:03:51.515Z,1000
2018-06-25T04:05:05.953Z,920
2018-06-25T04:05:51.557Z,900
2018-06-25T04:06:51.579Z,820
2018-06-25T04:07:51.604Z,836
2018-06-25T04:08:51.616Z,904
2018-06-25T04:09:51.644Z,1076
2018-06-25T04:11:20.987Z,1272
2018-06-25T04:12:51.716Z,1600
2018-06-25T04:13:51.728Z,1712
2018-06-25T04:14:51.757Z,1752
2018-06-25T04:15:51.521Z,1692
2018-06-25T04:16:51.284Z,1612
2018-06-25T04:17:51.817Z,1704
2018-06-25T04:19:06.507Z,1736
2018-06-25T04:19:51.868Z,1728
2018-06-25T04:20:51.498Z,1728
2018-06-25T04:21:51.909Z,1764
2018-06-25T04:22:51.932Z,1724
2018-06-25T04:23:52.335Z,1688
2018-06-25T04:24:51.723Z,1636
2018-06-25T04:25:51.743Z,1648
2018-06-25T04:27:06.424Z,2080
2018-06-25T04:27:51.789Z,2500
2018-06-25T04:28:51.835Z,2684
2018-06-25T04:29:52.083Z,2552
2018-06-25T04:30:52.529Z,2456
2018-06-25T04:31:51.886Z,2312
2018-06-25T04:32:52.160Z,1964
2018-06-25T04:33:51.919Z,1856
2018-06-25T04:36:06.886Z,1740
2018-06-25T04:37:06.652Z,1852
2018-06-25T04:37:52.010Z,1892
2018-06-25T04:38:52.300Z,1772
2018-06-25T04:39:51.796Z,1832
2018-06-25T04:41:06.837Z,2124
2018-06-25T04:41:52.361Z,2268
2018-06-25T04:43:06.780Z,2456
2018-06-25T04:43:52.401Z,2348
2018-06-25T04:45:07.083Z,2252
2018-06-25T04:45:52.449Z,2340
2018-06-25T04:46:52.210Z,2268
2018-06-25T04:47:52.237Z,2236
2018-06-25T04:48:52.618Z,2564
2018-06-25T04:49:52.541Z,3208
2018-06-25T04:50:52.576Z,2924
2018-06-25T04:52:07.247Z,2872
2018-06-25T04:52:52.605Z,3108
2018-06-25T04:54:07.026Z,3292
2018-06-25T04:54:52.395Z,3624
2018-06-25T04:55:52.412Z,3792
2018-06-25T04:56:52.702Z,3952
2018-06-25T04:58:07.127Z,4864
2018-06-25T04:59:07.140Z,5596
2018-06-25T04:59:52.501Z,6368
2018-06-25T05:00:52.358Z,5920
2018-06-25T05:01:52.811Z,5992
2018-06-25T05:02:52.826Z,6120
2018-06-25T05:03:52.852Z,5732
2018-06-25T05:04:52.876Z,7072
2018-06-25T05:05:52.908Z,10376
2018-06-25T05:07:52.684Z,16480
2018-06-25T05:09:07.378Z,19296
2018-06-25T05:09:52.996Z,18016
2018-06-25T05:10:53.014Z,33280
2018-06-25T05:11:52.789Z,22496
2018-06-25T05:12:52.548Z,12540
2018-06-25T05:14:07.739Z,7948
2018-06-25T05:14:53.107Z,7296
2018-06-25T05:15:52.870Z,8244
2018-06-25T05:16:53.154Z,12012
2018-06-25T05:18:52.945Z,22016
2018-06-25T05:19:52.963Z,12000
2018-06-25T05:20:53.245Z,9652
2018-06-25T05:21:53.268Z,8380
2018-06-25T05:22:53.290Z,9424
2018-06-25T05:24:07.461Z,11572
2018-06-25T05:24:53.337Z,11568
2018-06-25T05:25:53.470Z,11628
2018-06-25T05:26:53.384Z,10960
2018-06-25T05:27:53.150Z,10532
2018-06-25T05:28:53.434Z,14104
2018-06-25T05:29:52.942Z,9896
2018-06-25T05:30:53.487Z,11828
2018-06-25T05:32:08.166Z,13084
2018-06-25T05:32:53.532Z,15132
2018-06-25T05:34:08.211Z,10164
2018-06-25T05:35:08.236Z,10128
2018-06-25T05:35:53.345Z,11488
2018-06-25T05:37:53.389Z,82528
2018-06-25T05:39:08.337Z,27968
2018-06-25T05:39:53.536Z,18880
2018-06-25T05:40:53.726Z,51488
2018-06-25T05:41:53.750Z,18080
2018-06-25T05:43:53.793Z,12428
2018-06-25T05:44:53.817Z,11884
2018-06-25T05:46:08.246Z,11848
2018-06-25T05:46:53.865Z,12860
2018-06-25T05:48:08.553Z,16640
2018-06-25T05:48:54.075Z,22848
2018-06-25T05:49:53.682Z,59360
2018-06-25T05:50:53.964Z,88192
2018-06-25T05:51:54.089Z,96416
2018-06-25T05:53:08.677Z,29696
2018-06-25T05:53:54.034Z,66208
2018-06-25T05:54:54.073Z,48224
2018-06-25T05:55:54.093Z,37120
2018-06-25T05:56:54.122Z,19776
2018-06-25T05:57:54.144Z,15432
2018-06-25T05:58:54.328Z,12720
2018-06-25T05:59:54.190Z,11232
2018-06-25T06:00:53.962Z,9988
2018-06-25T06:02:08.918Z,10940
2018-06-25T06:02:54.013Z,12588
2018-06-25T06:03:54.299Z,17472
2018-06-25T06:04:53.807Z,15488
2018-06-25T06:05:54.350Z,17920
2018-06-25T06:06:54.117Z,20608
2018-06-25T06:07:54.402Z,27392
2018-06-25T06:08:54.430Z,67552
2018-06-25T06:09:54.453Z,41280
2018-06-25T06:11:09.141Z,30848
2018-06-25T06:11:54.502Z,26784
2018-06-25T06:12:54.296Z,25472
2018-06-25T06:13:54.706Z,65152
2018-06-25T06:14:54.618Z,29056
2018-06-25T06:15:54.618Z,26240
2018-06-25T06:16:54.635Z,20032
2018-06-25T06:18:09.323Z,15596
2018-06-25T06:18:54.436Z,14912
2018-06-25T06:19:54.193Z,17280
2018-06-25T06:20:54.235Z,81216
2018-06-25T06:21:54.772Z,56832
2018-06-25T06:22:54.531Z,38336
2018-06-25T06:23:54.819Z,93984
2018-06-25T06:24:54.594Z,54304
2018-06-25T06:25:54.869Z,60768
2018-06-25T06:26:54.640Z,45568
2018-06-25T06:27:54.927Z,37792
2018-06-25T06:29:54.718Z,90560
2018-06-25T06:30:55.018Z,86816
2018-06-25T06:31:55.033Z,32064
2018-06-25T06:32:54.802Z,30912
2018-06-25T06:34:09.756Z,24928
2018-06-25T06:34:54.856Z,25952
2018-06-25T06:35:55.200Z,22944
2018-06-25T06:36:55.176Z,15052
2018-06-25T06:38:09.864Z,16680
2018-06-25T06:39:55.546Z,81888
2018-06-25T06:40:55.289Z,39040
2018-06-25T06:41:55.308Z,40448
2018-06-25T06:42:55.337Z,28352
2018-06-25T06:43:55.366Z,22752
2018-06-25T06:44:55.395Z,29472
2018-06-25T06:45:55.421Z,35680
2018-06-25T06:46:55.193Z,32352
2018-06-25T06:47:55.474Z,23392
2018-06-25T06:49:09.912Z,19360
2018-06-25T06:49:55.273Z,16600
2018-06-25T06:51:10.230Z,15100
2018-06-25T06:51:55.337Z,15060
2018-06-25T06:52:55.620Z,18304
2018-06-25T06:53:55.128Z,20288
2018-06-25T06:55:55.698Z,20320
2018-06-25T06:57:10.389Z,86560
2018-06-25T06:57:55.977Z,67136
2018-06-25T06:58:55.779Z,72672
2018-06-25T06:59:55.296Z,83232
2018-06-25T07:00:55.576Z,71552
2018-06-25T07:01:55.865Z,74208
2018-06-25T07:02:55.889Z,33344
2018-06-25T07:03:55.916Z,21344
2018-06-25T07:04:56.192Z,19104
2018-06-25T07:05:55.458Z,21728
2018-06-25T07:06:56.008Z,32128
2018-06-25T07:07:56.033Z,22688
2018-06-25T07:09:10.463Z,16560
2018-06-25T07:09:55.837Z,12540
2018-06-25T07:10:56.126Z,8696
2018-06-25T07:12:10.293Z,6348
2018-06-25T07:12:56.172Z,5920
2018-06-25T07:13:55.942Z,5468
2018-06-25T07:14:56.227Z,5236
2018-06-25T07:15:56.005Z,5396
2018-06-25T07:16:56.340Z,5336
2018-06-25T07:17:56.322Z,4876
2018-06-25T07:18:56.337Z,4536
2018-06-25T07:19:56.362Z,4648
2018-06-25T07:21:10.536Z,4852
2018-06-25T07:21:56.157Z,5484
2018-06-25T07:22:56.481Z,6972
2018-06-25T07:24:10.872Z,7084
2018-06-25T07:24:56.570Z,6276
2018-06-25T07:26:56.555Z,7512
2018-06-25T07:27:56.588Z,8036
2018-06-25T07:28:56.884Z,9348
2018-06-25T07:29:56.653Z,10108
2018-06-25T07:30:56.668Z,9044
2018-06-25T07:31:56.729Z,8768
2018-06-25T07:32:56.730Z,10132
2018-06-25T07:33:56.798Z,9388
2018-06-25T07:34:56.755Z,8816
2018-06-25T07:35:56.262Z,7276
2018-06-25T07:37:11.463Z,7344
2018-06-25T07:37:56.316Z,6508
2018-06-25T07:38:56.852Z,5576
2018-06-25T07:39:56.874Z,5072
2018-06-25T07:40:56.909Z,4948
2018-06-25T07:43:11.355Z,6472
2018-06-25T07:43:56.731Z,6104
2018-06-25T07:44:57.008Z,5784
2018-06-25T07:45:56.776Z,5812
2018-06-25T07:46:57.085Z,6044
2018-06-25T07:48:11.748Z,6160
2018-06-25T07:48:56.849Z,6464
2018-06-25T07:49:57.134Z,7096
2018-06-25T07:51:56.924Z,6128
2018-06-25T07:53:11.652Z,6412
2018-06-25T07:54:57.000Z,5752
2018-06-25T07:55:56.772Z,5784
2018-06-25T07:56:57.410Z,6092
2018-06-25T07:58:11.731Z,6040
2018-06-25T07:58:57.366Z,6176
2018-06-25T07:59:57.160Z,6864
2018-06-25T08:00:57.409Z,6992
2018-06-25T08:01:57.171Z,7616
2018-06-25T08:02:57.200Z,6492
2018-06-25T08:03:57.480Z,6108
2018-06-25T08:04:57.512Z,5732
2018-06-25T08:06:57.562Z,7100
2018-06-25T08:07:57.061Z,6788
2018-06-25T08:09:12.262Z,6616
2018-06-25T08:09:57.512Z,6100
2018-06-25T08:10:57.655Z,5872
2018-06-25T08:12:57.443Z,5900
2018-06-25T08:13:57.464Z,6400
2018-06-25T08:14:57.748Z,6004
2018-06-25T08:15:57.513Z,5988
2018-06-25T08:16:57.810Z,6072
2018-06-25T08:17:57.818Z,6040
2018-06-25T08:19:12.248Z,7372
2018-06-25T08:19:57.613Z,7168
2018-06-25T08:20:57.898Z,6968
2018-06-25T08:24:12.630Z,7508
2018-06-25T08:24:57.997Z,7864
2018-06-25T08:25:57.759Z,8620
2018-06-25T08:27:57.805Z,8016
2018-06-25T08:28:57.849Z,8572
2018-06-25T08:29:58.171Z,7964
2018-06-25T08:31:12.803Z,7044
2018-06-25T08:31:58.162Z,6864
2018-06-25T08:32:57.926Z,6880
2018-06-25T08:33:58.650Z,6568
2018-06-25T08:34:58.239Z,6676
2018-06-25T08:35:58.022Z,6804
2018-06-25T08:36:58.429Z,6612
2018-06-25T08:37:58.313Z,7088
2018-06-25T08:38:58.077Z,7740
2018-06-25T08:40:13.098Z,8676
2018-06-25T08:40:58.379Z,8392
2018-06-25T08:42:13.067Z,7836
2018-06-25T08:42:58.434Z,7608
2018-06-25T08:44:13.113Z,7908
2018-06-25T08:44:58.482Z,9200
2018-06-25T08:45:58.816Z,13504
2018-06-25T08:46:58.533Z,20768
2018-06-25T08:47:58.564Z,22784
2018-06-25T08:49:13.239Z,17152
2018-06-25T08:49:58.603Z,14520
2018-06-25T08:50:58.630Z,12824
2018-06-25T08:51:58.543Z,12416
2018-06-25T08:53:58.696Z,9932
2018-06-25T08:54:58.722Z,9436
2018-06-25T08:56:13.411Z,9784
2018-06-25T08:56:58.984Z,9768
2018-06-25T08:58:13.467Z,12108
2018-06-25T08:59:13.491Z,11616
2018-06-25T08:59:58.900Z,11008
2018-06-25T09:00:58.872Z,13720
2018-06-25T09:01:58.900Z,13152
2018-06-25T09:02:58.698Z,12076
2018-06-25T09:03:58.950Z,10784
2018-06-25T09:04:58.715Z,10112
2018-06-25T09:05:58.997Z,10304
2018-06-25T09:06:59.024Z,18560
2018-06-25T09:07:59.044Z,22880
2018-06-25T09:08:59.076Z,18304
2018-06-25T09:09:59.230Z,21440
2018-06-25T09:11:13.786Z,16164
2018-06-25T09:12:13.808Z,15904
2018-06-25T09:13:13.834Z,28992
2018-06-25T09:13:59.200Z,20704
2018-06-25T09:14:59.236Z,26144
2018-06-25T09:15:59.251Z,21664
2018-06-25T09:16:59.017Z,20096
2018-06-25T09:19:59.360Z,18368
2018-06-25T09:20:59.378Z,16812
2018-06-25T09:21:59.216Z,14524
2018-06-25T09:22:59.435Z,15064
2018-06-25T09:23:59.457Z,16420
2018-06-25T09:24:59.483Z,18912
2018-06-25T09:25:59.508Z,20352
2018-06-25T09:26:59.537Z,19872
2018-06-25T09:28:13.965Z,20416
2018-06-25T09:28:59.596Z,20672
2018-06-25T09:29:59.614Z,19456
2018-06-25T09:30:59.640Z,17440
2018-06-25T09:31:59.674Z,15300
2018-06-25T09:32:59.538Z,13944
2018-06-25T09:33:59.726Z,13576
2018-06-25T09:34:59.493Z,12816
2018-06-25T09:35:59.519Z,12884
2018-06-25T09:36:59.806Z,12320
2018-06-25T09:37:59.569Z,13084
2018-06-25T09:38:59.854Z,15224
2018-06-25T09:39:59.886Z,17184
2018-06-25T09:41:00.113Z,16404
2018-06-25T09:41:59.932Z,16172
2018-06-25T09:42:59.954Z,15752
2018-06-25T09:44:14.652Z,19008
2018-06-25T09:45:00.028Z,16472
2018-06-25T09:46:14.793Z,16080
2018-06-25T09:49:00.120Z,19616
2018-06-25T09:49:59.882Z,21760
2018-06-25T09:51:00.304Z,19712
2018-06-25T09:52:00.198Z,17824
2018-06-25T09:53:00.223Z,15508
2018-06-25T09:54:00.249Z,14660
2018-06-25T09:54:59.514Z,14304
2018-06-25T09:56:00.304Z,14720
2018-06-25T09:57:00.327Z,15040
2018-06-25T09:58:00.358Z,15240
2018-06-25T09:59:14.782Z,16228
2018-06-25T10:00:00.420Z,17792
2018-06-25T10:01:00.442Z,18272
2018-06-25T10:02:15.120Z,18912
2018-06-25T10:03:00.490Z,23296
2018-06-25T10:04:00.513Z,15872
2018-06-25T10:05:15.202Z,16548
2018-06-25T10:06:00.411Z,17632
2018-06-25T10:07:00.593Z,25248
2018-06-25T10:08:00.616Z,20224
2018-06-25T10:09:00.399Z,19328
2018-06-25T10:10:00.670Z,21440
2018-06-25T10:11:00.439Z,21152
2018-06-25T10:12:00.215Z,21248
2018-06-25T10:13:00.748Z,18240
2018-06-25T10:14:00.776Z,21760
2018-06-25T10:15:00.807Z,19968
2018-06-25T10:16:00.575Z,22208
2018-06-25T10:17:00.866Z,16768
2018-06-25T10:18:00.894Z,18240
2018-06-25T10:19:00.923Z,16912
2018-06-25T10:20:00.968Z,17216
2018-06-25T10:21:00.711Z,16512
2018-06-25T10:22:00.739Z,15832
2018-06-25T10:23:00.768Z,16416
2018-06-25T10:24:00.805Z,15068
2018-06-25T10:25:00.821Z,16192
2018-06-25T10:26:00.693Z,17440
2018-06-25T10:27:15.797Z,16396
2018-06-25T10:28:01.161Z,15408
2018-06-25T10:29:15.855Z,17184
2018-06-25T10:30:01.215Z,16760
2018-06-25T10:31:15.904Z,18144
2018-06-25T10:32:15.679Z,23168
2018-06-25T10:33:01.045Z,24960
2018-06-25T10:34:15.993Z,22432
2018-06-25T10:36:01.387Z,22336
2018-06-25T10:37:01.156Z,20928
2018-06-25T10:38:01.180Z,15992
2018-06-25T10:39:01.477Z,21472
2018-06-25T10:40:01.291Z,16688
2018-06-25T10:41:01.523Z,16684
2018-06-25T10:42:16.240Z,16732
2018-06-25T10:43:01.578Z,15920
2018-06-25T10:44:01.613Z,22144
2018-06-25T10:45:16.302Z,19296
2018-06-25T10:46:01.660Z,15520
2018-06-25T10:47:16.351Z,18144
2018-06-25T10:48:01.468Z,12704
2018-06-25T10:49:01.739Z,14848
2018-06-25T10:50:01.778Z,14968
2018-06-25T10:51:01.801Z,14852
2018-06-25T10:54:16.545Z,16260
2018-06-25T10:55:16.571Z,22208
2018-06-25T10:56:16.593Z,18432
2018-06-25T10:58:01.986Z,16344
2018-06-25T10:59:02.025Z,15228
2018-06-25T11:00:03.337Z,20448
2018-06-25T11:01:01.835Z,16636
2018-06-25T11:02:02.104Z,20864
2018-06-25T11:03:16.787Z,14544
2018-06-25T11:04:16.815Z,11900
2018-06-25T11:05:16.843Z,14488
2018-06-25T11:06:01.819Z,17952
2018-06-25T11:07:02.326Z,13904
2018-06-25T11:08:02.264Z,16620
2018-06-25T11:09:02.300Z,14092
2018-06-25T11:11:02.347Z,17600
2018-06-25T11:12:02.394Z,14476
2018-06-25T11:13:02.627Z,12536
2018-06-25T11:14:02.430Z,13864
2018-06-25T11:15:02.467Z,15648
2018-06-25T11:16:02.480Z,17120
2018-06-25T11:17:02.523Z,14392
2018-06-25T11:18:02.551Z,13896
2018-06-25T11:19:17.225Z,10356
2018-06-25T11:20:02.595Z,10040
2018-06-25T11:21:02.617Z,13216
2018-06-25T11:22:02.386Z,9908
2018-06-25T11:23:02.677Z,10740
2018-06-25T11:24:02.713Z,16060
2018-06-25T11:26:02.751Z,11880
2018-06-25T11:27:17.823Z,9736
2018-06-25T11:28:02.550Z,11140
2018-06-25T11:29:17.496Z,11124
2018-06-25T11:30:02.605Z,14608
2018-06-25T11:31:02.633Z,13212
2018-06-25T11:32:17.582Z,11612
2018-06-25T11:33:02.941Z,12460
2018-06-25T11:34:17.636Z,13308
2018-06-25T11:35:03.006Z,13228
2018-06-25T11:36:03.025Z,12496
2018-06-25T11:37:03.051Z,12344
2018-06-25T11:38:17.744Z,11988
2018-06-25T11:39:03.110Z,10004
2018-06-25T11:40:02.881Z,8636
2018-06-25T11:42:03.157Z,12812
2018-06-25T11:43:03.217Z,12968
2018-06-25T11:44:17.900Z,14008
2018-06-25T11:45:03.008Z,13828
2018-06-25T11:46:03.036Z,10900
2018-06-25T11:47:17.731Z,10692
2018-06-25T11:48:18.012Z,12912
2018-06-25T11:49:03.115Z,12404
2018-06-25T11:50:03.148Z,13652
2018-06-25T11:51:03.168Z,12628
2018-06-25T11:52:03.456Z,12736
2018-06-25T11:53:03.224Z,13268
2018-06-25T11:54:03.254Z,11224
2018-06-25T11:55:03.275Z,13760
2018-06-25T11:56:03.308Z,13184
2018-06-25T11:57:18.254Z,12888
2018-06-25T11:58:03.616Z,12408
2018-06-25T11:59:03.643Z,11924
2018-06-25T12:00:18.410Z,11524
2018-06-25T12:01:03.444Z,10848
2018-06-25T12:02:04.037Z,11636
2018-06-25T12:03:04.035Z,13476
2018-06-25T12:04:03.783Z,11332
2018-06-25T12:05:03.556Z,12960
2018-06-25T12:06:18.495Z,12868
2018-06-25T12:07:03.875Z,12608
2018-06-25T12:08:18.550Z,10244
2018-06-25T12:10:03.683Z,9032
2018-06-25T12:11:03.713Z,8860
2018-06-25T12:12:03.795Z,8952
2018-06-25T12:13:03.775Z,9692
2018-06-25T12:14:03.970Z,10024
2018-06-25T12:15:03.560Z,10004
2018-06-25T12:16:03.689Z,10840
2018-06-25T12:17:03.879Z,10916
2018-06-25T12:18:04.001Z,10796
2018-06-25T12:19:03.778Z,10648
2018-06-25T12:20:04.540Z,10608
2018-06-25T12:21:18.969Z,10780
2018-06-25T12:22:18.930Z,10664
2018-06-25T12:23:04.222Z,10840
2018-06-25T12:24:04.063Z,12344
2018-06-25T12:25:04.098Z,12100
2018-06-25T12:26:04.399Z,11848
2018-06-25T12:27:04.412Z,11720
2018-06-25T12:28:04.177Z,11728
2018-06-25T12:29:04.218Z,11564
2018-06-25T12:30:19.147Z,11488
2018-06-25T12:31:04.256Z,11712
2018-06-25T12:32:03.827Z,13436
2018-06-25T12:33:04.573Z,11012
2018-06-25T12:34:04.596Z,10816
2018-06-25T12:35:19.292Z,10640
2018-06-25T12:36:04.390Z,10356
2018-06-25T12:37:04.413Z,10100
2018-06-25T12:38:19.359Z,9500
2018-06-25T12:39:04.488Z,9420
2018-06-25T12:40:19.431Z,10032
2018-06-25T12:41:04.784Z,10376
2018-06-25T12:42:04.809Z,11368
2018-06-25T12:43:04.764Z,11092
2018-06-25T12:44:04.617Z,11712
2018-06-25T12:45:04.907Z,10196
2018-06-25T12:46:04.710Z,10296
2018-06-25T12:47:04.430Z,11884
2018-06-25T12:49:19.141Z,12836
2018-06-25T12:50:04.775Z,12792
2018-06-25T12:52:05.076Z,13968
2018-06-25T12:53:05.104Z,13816
2018-06-25T12:54:19.792Z,13588
2018-06-25T12:55:04.902Z,13296
2018-06-25T12:56:04.937Z,10768
2018-06-25T12:58:19.899Z,8572
2018-06-25T13:00:05.038Z,8484
2018-06-25T13:01:05.324Z,8228
2018-06-25T13:02:05.158Z,8152
2018-06-25T13:03:05.125Z,8176
2018-06-25T13:04:20.072Z,7992
2018-06-25T13:05:05.436Z,8904
2018-06-25T13:06:05.454Z,8488
2018-06-25T13:07:05.487Z,8560
2018-06-25T13:08:05.678Z,7640
2018-06-25T13:09:20.201Z,7492
2018-06-25T13:10:05.049Z,7568
2018-06-25T13:11:04.819Z,9644
2018-06-25T13:13:05.390Z,9080
2018-06-25T13:14:05.671Z,9836
2018-06-25T13:15:05.945Z,10840
2018-06-25T13:16:05.733Z,9900
2018-06-25T13:17:05.758Z,10876
2018-06-25T13:18:05.526Z,9936
2018-06-25T13:19:05.292Z,10156
2018-06-25T13:20:05.849Z,9580
2018-06-25T13:21:05.347Z,9524
2018-06-25T13:22:05.375Z,10460
2018-06-25T13:23:05.654Z,11152
2018-06-25T13:24:05.687Z,9724
2018-06-25T13:25:05.709Z,9672
2018-06-25T13:26:05.739Z,10204
2018-06-25T13:27:06.031Z,10408
2018-06-25T13:28:05.890Z,10656
2018-06-25T13:29:06.081Z,10616
2018-06-25T13:30:05.978Z,11048
2018-06-25T13:31:06.594Z,10888
2018-06-25T13:32:05.901Z,9656
2018-06-25T13:34:06.217Z,8204
2018-06-25T13:35:20.908Z,8276
2018-06-25T13:36:05.750Z,8460
2018-06-25T13:37:06.036Z,8904
2018-06-25T13:38:06.129Z,9796
2018-06-25T13:40:06.116Z,9412
2018-06-25T13:41:21.086Z,9348
2018-06-25T13:42:06.174Z,9380
2018-06-25T13:43:06.469Z,8780
2018-06-25T13:44:06.228Z,8880
2018-06-25T13:45:05.998Z,8248
2018-06-25T13:46:06.280Z,8304
2018-06-25T13:47:06.310Z,8440
2018-06-25T13:48:06.077Z,9092
2018-06-25T13:49:06.101Z,9532
2018-06-25T13:50:06.386Z,10620
2018-06-25T13:51:21.330Z,9844
2018-06-25T13:52:21.358Z,10024
2018-06-25T13:53:06.467Z,9680
2018-06-25T13:54:06.758Z,9584
2018-06-25T13:55:06.784Z,9224
2018-06-25T13:56:06.598Z,9328
2018-06-25T13:57:21.494Z,9360
2018-06-25T13:58:06.602Z,9540
2018-06-25T13:59:06.625Z,9436
2018-06-25T14:00:06.933Z,9608
2018-06-25T14:01:06.885Z,10400
2018-06-25T14:02:06.974Z,11612
2018-06-25T14:03:06.735Z,10276
2018-06-25T14:04:07.024Z,10080
2018-06-25T14:05:07.054Z,9584
2018-06-25T14:06:21.733Z,8912
2018-06-25T14:07:06.840Z,8172
2018-06-25T14:08:06.615Z,7280
2018-06-25T14:09:06.638Z,7012
2018-06-25T14:10:06.933Z,7064
2018-06-25T14:11:06.960Z,7312
2018-06-25T14:12:06.976Z,7740
2018-06-25T14:13:21.670Z,8412
2018-06-25T14:14:07.299Z,8848
2018-06-25T14:15:07.067Z,9280
2018-06-25T14:16:07.353Z,9780
2018-06-25T14:17:07.417Z,10148
2018-06-25T14:18:07.138Z,10184